ASP weather

Alice Springs Airport
Alice Springs, Northern Territory, Australia

Public forecast

Using degrees Celsius for public forecast. Weather courtesy of forecast.io.

METAR (pilot weather report)

Retrieved 2017/05/25 12:00 UTC (9 minutes ago):

YBAS 251200Z AUTO 13003KT 9999 // NCD 15/M00 Q1022 RF00.0/000.0

TAF (pilot weather forecast)

Retrieved 2017/05/25 12:00 UTC (9 minutes ago):

TAF YBAS 251110Z 2512/2612 09005KT CAVOK